Main page
METAR-TAF:

METAR-TAF

Airports :

Gustavus Airport

Gustavus, Alaska, United States

latitude: 58-25N, longitude: 135-42W, elevation: 10 m

Current weather observation

The report was made 25 minutes ago, at 09:56 UTC
Calm wind
Temperature -3°C
Humidity 93%
Pressure 1034 hPa
Visibility: 16.1 km
Clear sky

METAR: PAGS 160956Z AUTO 00000KT 10SM CLR M03/M04 A3053 RMK AO2 SLP337 T10281044 FZRANO

Time: 02:21 (10:21 UTC)

Forecast

The report was made 5 hours and 1 minutes ago, at 05:20 UTC
Forecast valid from 16 at 06 UTC to 17 at 06 UTC
Wind 6 kt from the West/Northwest
Visibility: 10 km
Clear sky
From 16 at 1800 UTC
Wind 6 kt from the West
Visibility: 10 km
Clear sky

TAF: PAGS 160520Z 1606/1706 30006KT P6SM SKC FM161800 26006KT P6SM SKC AMD LTD TO CLD VIS AND WIND

Weather observations and forecasts of more than 4000 airports (METAR and TAF reports).

The available stations are represented by yellow and red dots on the map.

Hover mouse over dot to see the name of the station.

Then click to see weather observations and forecasts.

To change the map : click on the green buttons with a black cross to zoom in, on the green button with a dash to zoom out, or on the green arrows for adjacent maps.


METAR-TAF: